Data for 06/02/2013

Time Sea-Level Adjusted Pressure Absolute Pressure Temperature Relative Humidity Dew Point   
(mb) (inHg) (mb) (inHg) (C) (F) (%) (C) (F)
00:05 1019 30.09 848 25.04 12.3 54.1 59 4.6 40.3
00:10 1019 30.09 848 25.04 12.3 54.1 59 4.6 40.3
00:15 1019 30.09 848 25.04 12.2 54 59 4.6 40.3
00:20 1018 30.06 848 25.04 12.2 53.9 60 4.6 40.3
00:25 1018 30.06 848 25.04 12.1 53.8 60 4.6 40.3
00:30 1018 30.06 848 25.04 12.1 53.7 60 4.7 40.4
00:35 1018 30.06 848 25.04 12 53.6 61 4.7 40.5
00:40 1018 30.06 848 25.04 11.9 53.4 61 4.7 40.5
00:45 1018 30.06 848 25.04 11.8 53.2 62 4.8 40.6
00:50 1018 30.06 848 25.04 11.7 53.1 62 4.8 40.6
00:55 1018 30.06 848 25.04 11.7 53 62 4.7 40.4
01:00 1018 30.06 848 25.04 11.7 53.1 62 4.7 40.5
01:05 1018 30.06 848 25.04 11.7 53 63 4.8 40.7
01:10 1018 30.06 847 25.01 11.6 52.8 63 4.8 40.6
01:15 1018 30.06 847 25.01 11.5 52.8 63 4.7 40.5
01:20 1018 30.06 847 25.01 11.5 52.8 63 4.7 40.5
01:25 1018 30.06 847 25.01 11.6 52.8 62 4.7 40.4
01:30 1018 30.06 847 25.01 11.6 52.8 62 4.7 40.4
01:35 1018 30.06 847 25.01 11.6 52.8 62 4.7 40.4
01:40 1018 30.06 847 25.01 11.6 52.8 63 4.7 40.5
01:45 1018 30.06 847 25.01 11.5 52.6 63 4.8 40.7
01:50 1018 30.06 847 25.01 11.5 52.7 62 4.5 40.1
01:55 1017 30.03 847 25.01 11.6 52.8 62 4.5 40.2
02:00 1017 30.03 847 25.01 11.7 53 61 4.5 40.1
02:05 1017 30.03 847 25.01 11.7 53 62 4.6 40.2
02:10 1017 30.03 846 24.98 11.6 52.9 62 4.6 40.3
02:15 1017 30.03 846 24.98 11.6 52.9 61 4.5 40
02:20 1017 30.03 846 24.98 11.7 53 61 4.4 39.9
02:25 1017 30.03 846 24.98 11.8 53.2 61 4.5 40.1
02:30 1017 30.03 846 24.98 11.8 53.3 60 4.4 39.9
02:35 1017 30.03 846 24.98 11.8 53.2 60 4.4 40
02:40 1017 30.03 846 24.98 11.7 53 62 4.6 40.3
02:45 1017 30.03 846 24.98 11.5 52.7 62 4.5 40.1
02:50 1017 30.03 846 24.98 11.5 52.6 62 4.5 40
02:55 1017 30.03 846 24.98 11.4 52.5 62 4.5 40.1
03:00 1017 30.03 846 24.98 11.3 52.3 63 4.6 40.3
03:05 1017 30.03 846 24.98 11.2 52.2 62 4.3 39.8
03:10 1017 30.03 846 24.98 11.3 52.3 62 4.4 40
03:15 1017 30.03 846 24.98 11.3 52.3 62 4.4 39.9
03:20 1017 30.03 846 24.98 11.2 52.2 63 4.4 40
03:25 1017 30.03 846 24.98 11.2 52.1 63 4.5 40.1
03:30 1017 30.03 846 24.98 11.1 52 63 4.4 40
03:35 1017 30.03 846 24.98 11.2 52.1 63 4.3 39.8
03:40 1017 30.03 846 24.98 11.1 52 64 4.5 40.2
03:45 1017 30.03 846 24.98 10.5 50.8 67 4.7 40.4
03:50 1017 30.03 846 24.98 10 49.9 68 4.3 39.7
03:55 1017 30.03 846 24.98 9.8 49.6 68 4.1 39.4
04:00 1017 30.03 846 24.98 9.6 49.3 68 4.1 39.4
04:05 1017 30.03 846 24.98 9.5 49 69 4.1 39.4
04:10 1017 30.03 846 24.98 9.4 48.9 69 4 39.3
04:15 1017 30.03 846 24.98 9.3 48.8 69 4 39.2
04:20 1017 30.03 846 24.98 9.3 48.7 69 3.9 39.1
04:25 1017 30.03 846 24.98 9.2 48.6 70 4 39.2
04:30 1017 30.03 846 24.98 9.2 48.5 70 3.9 39.1
04:35 1017 30.03 846 24.98 9.3 48.7 70 4 39.2
04:40 1017 30.03 846 24.98 9.2 48.6 70 4.1 39.4
04:45 1017 30.03 846 24.98 9.1 48.3 72 4.2 39.6
04:50 1017 30.03 846 24.98 8.8 47.8 73 4.3 39.7
04:55 1017 30.03 846 24.98 8.4 47.2 75 4.3 39.7
05:00 1017 30.03 846 24.98 8.2 46.7 76 4.1 39.5
05:05 1017 30.03 846 24.98 8.1 46.5 75 3.9 39
05:10 1017 30.03 846 24.98 8.2 46.7 75 4 39.1
05:15 1017 30.03 846 24.98 8.1 46.5 74 3.8 38.9
05:20 1017 30.03 846 24.98 8 46.4 75 3.8 38.8
05:25 1017 30.03 846 24.98 8 46.3 75 3.8 38.9
05:30 1017 30.03 846 24.98 7.8 46.1 75 3.6 38.6
05:35 1017 30.03 846 24.98 7.7 45.9 76 3.8 38.9
05:40 1017 30.03 846 24.98 7.6 45.7 77 3.8 38.8
05:45 1017 30.03 846 24.98 7.9 46.2 75 3.8 38.8
05:50 1017 30.03 846 24.98 8.1 46.5 74 3.8 38.9
05:55 1017 30.03 846 24.98 8.4 47.1 73 3.8 38.9
06:00 1017 30.03 846 24.98 8.9 48 71 4 39.1
06:05 1017 30.03 846 24.98 9.1 48.4 70 4 39.3
06:10 1017 30.03 846 24.98 9.5 49 70 4.3 39.7
06:15 1017 30.03 846 24.98 9.8 49.6 68 4.2 39.6
06:20 1017 30.03 846 24.98 10.3 50.5 65 4.1 39.4
06:25 1017 30.03 846 24.98 10.5 50.9 67 4.6 40.3
06:30 1017 30.03 846 24.98 10.8 51.4 65 4.6 40.2
06:35 1017 30.03 846 24.98 11.2 52.2 64 4.7 40.5
06:40 1017 30.03 846 24.98 11.6 52.9 63 4.9 40.8
06:45 1017 30.03 846 24.98 12.1 53.7 62 5 41
06:50 1017 30.03 846 24.98 12.4 54.3 61 5.1 41.1
06:55 1017 30.03 846 24.98 12.5 54.5 60 5 40.9
07:00 1017 30.03 846 24.98 12.8 55.1 59 5 40.9
07:05 1016 30 846 24.98 13.1 55.5 57 4.8 40.6
07:10 1016 30 846 24.98 13.3 55.9 56 4.7 40.4
07:15 1016 30 846 24.98 13.5 56.3 56 5 40.9
07:20 1016 30 846 24.98 13.4 56.1 56 4.7 40.5
07:25 1016 30 846 24.98 13.5 56.3 57 5.1 41.2
07:30 1016 30 845 24.95 13.6 56.4 55 4.8 40.7
07:35 1016 30 845 24.95 13.4 56.2 55 4.6 40.2
07:40 1016 30 845 24.95 13.6 56.4 55 4.7 40.5
07:45 1016 30 845 24.95 13.8 56.8 53 4.5 40.1
07:50 1016 30 845 24.95 14.2 57.5 53 4.8 40.6
07:55 1016 30 845 24.95 14.3 57.7 52 4.6 40.2
08:00 1016 30 845 24.95 14.6 58.3 51 4.6 40.2
08:05 1016 30 845 24.95 14.5 58.2 50 4.4 39.9
08:10 1016 30 845 24.95 14.8 58.7 48 4.1 39.5
08:15 1016 30 845 24.95 14.9 58.9 48 4 39.2
08:20 1016 30 845 24.95 15.4 59.7 46 3.8 38.9
08:25 1016 30 845 24.95 15.7 60.2 45 3.9 39
08:30 1016 30 845 24.95 16.2 61.2 47 5.1 41.2
08:35 1016 30 845 24.95 15.9 60.6 51 6 42.7
08:40 1016 30 845 24.95 15.3 59.6 53 5.9 42.7
08:45 1016 30 845 24.95 15.3 59.5 52 5.5 41.8
08:50 1016 30 845 24.95 15.7 60.2 51 5.6 42.1
08:55 1016 30 845 24.95 15.9 60.7 49 5.5 41.8
09:00 1016 30 845 24.95 15.5 59.8 51 5.6 42
09:05 1015 29.97 845 24.95 15.1 59.2 52 5.4 41.7
09:10 1015 29.97 845 24.95 15.8 60.4 50 5.3 41.6
09:15 1015 29.97 845 24.95 15.5 60 48 4.6 40.3
09:20 1015 29.97 844 24.92 15.8 60.5 48 5.1 41.1
09:25 1015 29.97 844 24.92 16 60.9 52 6.2 43.2
09:30 1015 29.97 844 24.92 16.4 61.4 46 4.9 40.9
09:35 1015 29.97 844 24.92 16.7 62 48 5.7 42.2
09:40 1015 29.97 844 24.92 17 62.6 46 5.5 41.8
09:45 1015 29.97 844 24.92 17.6 63.6 44 5.3 41.6
09:50 1015 29.97 844 24.92 17.7 63.8 45 5.8 42.4
09:55 1015 29.97 844 24.92 17.9 64.1 45 5.8 42.5
10:00 1015 29.97 844 24.92 18 64.4 44 5.8 42.5
10:05 1015 29.97 844 24.92 17.2 62.9 48 6.3 43.4
10:10 1015 29.97 844 24.92 16.8 62.2 46 5.3 41.5
10:15 1015 29.97 844 24.92 16.5 61.7 48 5.7 42.2
10:20 1014 29.94 844 24.92 16.3 61.4 48 5.4 41.7
10:25 1014 29.94 844 24.92 17.3 63.2 45 5.5 41.8
10:30 1014 29.94 844 24.92 18.1 64.5 45 5.9 42.7
10:35 1014 29.94 844 24.92 17.9 64.2 45 5.8 42.5
10:40 1014 29.94 843 24.89 17.9 64.1 45 5.8 42.4
10:45 1014 29.94 843 24.89 17.5 63.5 45 5.7 42.2
10:50 1014 29.94 843 24.89 18 64.4 42 5.1 41.1
10:55 1014 29.94 843 24.89 18.3 64.9 43 5.5 41.9
11:00 1014 29.94 843 24.89 17.7 63.9 45 5.7 42.3
11:05 1014 29.94 843 24.89 17.6 63.7 45 5.6 42.1
11:10 1014 29.94 843 24.89 17.5 63.5 44 5.1 41.1
11:15 1014 29.94 843 24.89 17.9 64.2 44 5.7 42.3
11:20 1014 29.94 843 24.89 18.5 65.2 41 5.2 41.4
11:25 1013 29.91 843 24.89 18.5 65.4 43 5.9 42.6
11:30 1013 29.91 843 24.89 18.3 65 43 5.7 42.3
11:35 1013 29.91 843 24.89 18.3 64.9 43 5.6 42
11:40 1013 29.91 842 24.86 18.5 65.3 43 5.8 42.4
11:45 1013 29.91 842 24.86 19.3 66.8 42 6.1 42.9
11:50 1013 29.91 842 24.86 19.3 66.7 40 5.6 42.1
11:55 1013 29.91 842 24.86 19.6 67.4 40 5.6 42.2
12:00 1013 29.91 842 24.86 20.1 68.2 38 5.5 42
12:05 1013 29.91 842 24.86 19.3 66.7 37 4.4 39.9
12:10 1013 29.91 842 24.86 19.1 66.3 39 5.1 41.1
12:15 1012 29.88 842 24.86 19 66.2 39 5.1 41.1
12:20 1012 29.88 842 24.86 19.4 66.9 38 4.8 40.6
12:25 1012 29.88 841 24.83 19.5 67.1 38 5 41
12:30 1012 29.88 841 24.83 19.8 67.7 37 4.8 40.7
12:35 1012 29.88 841 24.83 19.9 67.8 38 5.4 41.7
12:40 1012 29.88 841 24.83 19.8 67.6 36 4.5 40
12:45 1012 29.88 841 24.83 20.1 68.1 37 5 41
12:50 1012 29.88 841 24.83 20.2 68.3 32 3.3 38
12:55 1011 29.85 841 24.83 20.4 68.7 32 3.1 37.6
13:00 1011 29.85 841 24.83 20.4 68.6 30 2.3 36.2
13:05 1011 29.85 840 24.81 20.4 68.7 29 2 35.6
13:10 1011 29.85 840 24.81 20.1 68.2 30 2.3 36.2
13:15 1011 29.85 840 24.81 20.2 68.3 30 2 35.7
13:20 1011 29.85 840 24.81 20.9 69.6 28 1.7 35.1
13:25 1011 29.85 840 24.81 21.1 69.9 29 2.4 36.3
13:30 1011 29.85 840 24.81 21 69.9 30 3.1 37.6
13:35 1010 29.83 840 24.81 21.2 70.1 30 2.9 37.2
13:40 1011 29.85 840 24.81 20.8 69.4 30 2.5 36.6
13:45 1011 29.85 840 24.81 20.5 68.9 30 2.3 36.2
13:50 1011 29.85 840 24.81 20.1 68.3 31 2.8 37.1
13:55 1011 29.85 840 24.81 19.7 67.5 33 3 37.3
14:00 1011 29.85 840 24.81 19.7 67.4 32 2.6 36.6
14:05 1011 29.85 840 24.81 19.6 67.2 32 2.7 36.8
14:10 1011 29.85 840 24.81 19.4 66.9 32 2.3 36.2
14:15 1011 29.85 840 24.81 19.2 66.6 33 2.6 36.7
14:20 1011 29.85 840 24.81 19.2 66.6 37 4.3 39.8
14:25 1011 29.85 840 24.81 19 66.2 34 3.1 37.6
14:30 1011 29.85 840 24.81 18.9 66 33 2.3 36.2
14:35 1011 29.85 840 24.81 18.6 65.4 35 2.9 37.2
14:40 1011 29.85 840 24.81 18 64.5 38 3.6 38.5
14:45 1011 29.85 841 24.83 17.4 63.3 46 5.9 42.6
14:50 1012 29.88 841 24.83 16.6 61.9 52 6.7 44.1
14:55 1012 29.88 841 24.83 16.3 61.3 55 7.2 45
15:00 1012 29.88 841 24.83 15.9 60.6 54 6.7 44.1
15:05 1012 29.88 841 24.83 15.4 59.6 59 7.6 45.6
15:10 1012 29.88 841 24.83 15.1 59.2 61 7.8 46
15:15 1012 29.88 842 24.86 14.9 58.8 62 7.8 46
15:20 1012 29.88 842 24.86 15.2 59.4 65 8.7 47.6
15:25 1012 29.88 842 24.86 16 60.9 60 8.3 46.9
15:30 1012 29.88 842 24.86 16.2 61.1 57 7.7 45.8
15:35 1012 29.88 841 24.83 16.4 61.4 52 6.6 43.9
15:40 1012 29.88 841 24.83 16.2 61.2 53 6.6 44
15:45 1012 29.88 842 24.86 15.6 60.1 59 7.7 45.9
15:50 1012 29.88 842 24.86 14.8 58.6 63 7.9 46.2
15:55 1012 29.88 842 24.86 14.3 57.7 62 7.1 44.8
16:00 1012 29.88 842 24.86 14.2 57.5 66 7.9 46.2
16:05 1012 29.88 842 24.86 14.2 57.6 65 7.7 45.9
16:10 1012 29.88 842 24.86 13.9 56.9 69 8.3 46.9
16:15 1012 29.88 841 24.83 13.7 56.7 68 7.9 46.2
16:20 1012 29.88 841 24.83 13.7 56.7 70 8.4 47
16:25 1012 29.88 841 24.83 13.8 56.8 69 8.3 47
16:30 1012 29.88 841 24.83 13.5 56.2 75 9.1 48.3
16:35 1012 29.88 841 24.83 13.1 55.5 73 8.4 47.1
16:40 1012 29.88 841 24.83 12.7 54.8 73 7.9 46.2
16:45 1012 29.88 841 24.83 12.4 54.4 73 7.8 46.1
16:50 1012 29.88 841 24.83 12.5 54.5 73 7.7 45.9
16:55 1012 29.88 841 24.83 12.2 54 76 8.1 46.6
17:00 1012 29.88 842 24.86 11.8 53.3 76 7.7 45.9
17:05 1012 29.88 842 24.86 11.6 52.8 77 7.6 45.8
17:10 1012 29.88 842 24.86 11.5 52.6 77 7.6 45.6
17:15 1012 29.88 842 24.86 11.4 52.6 78 7.7 45.9
17:20 1013 29.91 842 24.86 11.2 52.2 79 7.7 45.9
17:25 1013 29.91 842 24.86 10.9 51.7 79 7.5 45.5
17:30 1013 29.91 842 24.86 10.7 51.2 80 7.4 45.4
17:35 1013 29.91 842 24.86 10.2 50.3 81 7.1 44.9
17:40 1013 29.91 842 24.86 10 50 81 6.9 44.4
17:45 1013 29.91 842 24.86 9.8 49.7 82 7 44.5
17:50 1013 29.91 842 24.86 9.9 49.8 82 7 44.6
17:55 1013 29.91 842 24.86 9.8 49.6 81 6.7 44.1
18:00 1013 29.91 842 24.86 9.6 49.3 82 6.7 44
18:05 1013 29.91 842 24.86 9.5 49.1 82 6.7 44
18:10 1013 29.91 842 24.86 9.3 48.8 83 6.6 43.9
18:15 1013 29.91 842 24.86 9.2 48.5 84 6.5 43.7
18:20 1013 29.91 842 24.86 9 48.3 85 6.6 43.9
18:25 1013 29.91 842 24.86 8.8 47.9 87 6.8 44.3
18:30 1013 29.91 842 24.86 8.7 47.6 88 6.8 44.2
18:35 1013 29.91 843 24.89 8.5 47.4 89 6.8 44.2
18:40 1013 29.91 842 24.86 8.5 47.2 89 6.8 44.2
18:45 1013 29.91 843 24.89 8.4 47.1 90 6.9 44.3
18:50 1014 29.94 843 24.89 8.3 46.9 90 6.7 44
18:55 1014 29.94 843 24.89 8.1 46.6 90 6.6 43.9
19:00 1014 29.94 843 24.89 8 46.3 91 6.6 43.9
19:05 1014 29.94 843 24.89 7.9 46.2 91 6.6 43.9
19:10 1014 29.94 843 24.89 7.8 46.1 92 6.6 43.9
19:15 1014 29.94 843 24.89 7.8 46 92 6.5 43.8
19:20 1014 29.94 843 24.89 7.7 45.8 92 6.5 43.7
19:25 1014 29.94 843 24.89 7.7 45.8 92 6.4 43.6
19:30 1014 29.94 843 24.89 7.7 45.8 91 6.3 43.3
19:35 1014 29.94 843 24.89 7.7 45.8 91 6.3 43.4
19:40 1014 29.94 843 24.89 7.7 45.8 91 6.3 43.4
19:45 1014 29.94 844 24.92 7.6 45.6 91 6.1 43.1
19:50 1015 29.97 844 24.92 7.4 45.4 91 6.1 42.9
19:55 1015 29.97 844 24.92 7.4 45.3 91 6 42.8
20:00 1015 29.97 844 24.92 7.5 45.4 92 6.2 43.2
20:05 1014 29.94 844 24.92 7.5 45.5 92 6.2 43.2
20:10 1014 29.94 844 24.92 7.6 45.6 91 6.1 43
20:15 1014 29.94 844 24.92 7.6 45.7 91 6.3 43.3
20:20 1015 29.97 844 24.92 7.6 45.6 90 6.1 43
20:25 1015 29.97 844 24.92 7.4 45.4 91 6 42.8
20:30 1015 29.97 844 24.92 7.4 45.3 90 5.9 42.6
20:35 1015 29.97 844 24.92 7.4 45.4 91 6.1 43
20:40 1015 29.97 844 24.92 7.5 45.4 91 6.1 43
20:45 1015 29.97 844 24.92 7.5 45.4 91 6.2 43.1
20:50 1015 29.97 844 24.92 7.5 45.4 91 6.1 43
20:55 1015 29.97 844 24.92 7.4 45.3 92 6.1 43
21:00 1015 29.97 844 24.92 7.4 45.4 92 6.2 43.1
21:05 1015 29.97 844 24.92 7.4 45.3 91 6.1 42.9
21:10 1015 29.97 844 24.92 7.3 45.2 92 6.1 43
21:15 1015 29.97 844 24.92 7.3 45.2 92 6.1 43
21:20 1015 29.97 845 24.95 7.3 45.1 92 6 42.8
21:25 1015 29.97 844 24.92 7.1 44.9 92 6 42.8
21:30 1015 29.97 844 24.92 7.1 44.8 93 6 42.9
21:35 1015 29.97 844 24.92 7.2 45 93 6.1 43
21:40 1015 29.97 844 24.92 7.2 44.9 93 6.1 42.9
21:45 1015 29.97 844 24.92 7.1 44.7 92 5.8 42.5
21:50 1015 29.97 844 24.92 6.9 44.4 92 5.7 42.2
21:55 1015 29.97 844 24.92 6.9 44.4 90 5.3 41.6
22:00 1015 29.97 844 24.92 6.8 44.3 89 5.1 41.1
22:05 1015 29.97 844 24.92 6.8 44.2 88 5 41
22:10 1015 29.97 844 24.92 6.8 44.2 87 4.8 40.6
22:15 1015 29.97 844 24.92 6.8 44.2 87 4.8 40.7
22:20 1015 29.97 844 24.92 6.8 44.3 87 4.8 40.6
22:25 1015 29.97 844 24.92 6.8 44.2 87 4.7 40.5
22:30 1015 29.97 844 24.92 6.7 44.1 85 4.4 40
22:35 1015 29.97 844 24.92 6.7 44.1 84 4.3 39.7
22:40 1015 29.97 844 24.92 6.7 44 84 4.2 39.6
22:45 1015 29.97 844 24.92 6.6 43.9 85 4.2 39.6
22:50 1015 29.97 844 24.92 6.6 43.9 84 4.1 39.4
22:55 1014 29.94 844 24.92 6.6 43.9 84 4.2 39.6
23:00 1014 29.94 844 24.92 6.7 44.1 82 3.9 39
23:05 1014 29.94 843 24.89 6.9 44.4 81 3.9 39
23:10 1014 29.94 843 24.89 6.9 44.5 80 3.8 38.9
23:15 1014 29.94 843 24.89 6.9 44.4 81 3.8 38.8
23:20 1014 29.94 843 24.89 6.9 44.5 80 3.8 38.9
23:25 1014 29.94 843 24.89 7 44.7 79 3.7 38.6
23:30 1014 29.94 843 24.89 7.1 44.8 76 3.2 37.7
23:35 1014 29.94 843 24.89 7.1 44.9 77 3.3 38
23:40 1014 29.94 843 24.89 7.1 44.8 76 3.2 37.8
23:45 1014 29.94 843 24.89 7.1 44.8 77 3.4 38.1
23:50 1014 29.94 843 24.89 7.1 44.8 78 3.5 38.3
23:55 1014 29.94 843 24.89 7.1 44.7 79 3.7 38.6
24:00 1014 29.94 843 24.89 7.1 44.7 78 3.5 38.2